Time;durP1;ratioP1;P1;durP2;ratioP2;P2;SDS_P1;SDS_P2;PMS_P1;PMS_P2;Temp;Humidity;BMP_temperature;BMP_pressure;BME280_temperature;BME280_humidity;BME280_pressure;Samples;Min_cycle;Max_cycle;Signal;HPM_P1;HPM_P2
2021/09/02 00:02:25;;;;;;;10.38;3.20;;;;;;;13.77;92.62;98802.27;1721648;81;21762;-68
2021/09/02 00:04:51;;;;;;;8.58;3.30;;;;;;;13.73;93.30;98806.09;1730534;81;21166;-68
2021/09/02 00:07:23;;;;;;;6.80;3.33;;;;;;;13.70;93.85;98801.28;1739042;81;21031;-69
2021/09/02 00:09:50;;;;;;;4.15;2.62;;;;;;;13.67;94.66;98803.37;1715028;82;20902;-68
2021/09/02 00:12:17;;;;;;;6.58;3.42;;;;;;;13.64;95.11;98802.70;1717423;81;21016;-68
2021/09/02 00:14:44;;;;;;;7.30;3.40;;;;;;;13.61;95.40;98803.41;1716102;81;21011;-69
2021/09/02 00:17:12;;;;;;;9.70;2.95;;;;;;;13.58;95.66;98803.53;1750108;81;20881;-69
2021/09/02 00:19:39;;;;;;;8.10;3.30;;;;;;;13.52;96.02;98810.45;1735463;80;21006;-70
2021/09/02 00:22:05;;;;;;;5.30;3.08;;;;;;;13.48;96.27;98806.22;1750323;80;20967;-69
2021/09/02 00:24:32;;;;;;;5.05;3.15;;;;;;;13.43;96.53;98807.06;1759145;80;20944;-69
2021/09/02 00:26:59;;;;;;;5.10;3.20;;;;;;;13.37;96.68;98802.38;1750074;81;21041;-70
2021/09/02 00:29:25;;;;;;;5.35;3.35;;;;;;;13.31;96.86;98814.80;1745275;81;21149;-69
2021/09/02 00:31:52;;;;;;;9.30;3.62;;;;;;;13.27;97.12;98813.94;1759551;80;20884;-69
2021/09/02 00:34:18;;;;;;;8.83;3.42;;;;;;;13.23;97.43;98813.03;1757027;81;20960;-69
2021/09/02 00:36:45;;;;;;;4.25;2.90;;;;;;;13.20;97.40;98814.53;1752900;81;20945;-69
2021/09/02 00:39:11;;;;;;;8.38;3.40;;;;;;;13.14;97.85;98814.52;1763865;80;21535;-69
2021/09/02 00:41:38;;;;;;;5.25;3.27;;;;;;;13.08;97.94;98809.03;1765158;80;23270;-69
2021/09/02 00:44:05;;;;;;;5.35;3.77;;;;;;;13.03;98.39;98816.75;1758395;80;21537;-70
2021/09/02 00:46:31;;;;;;;6.40;3.08;;;;;;;12.98;98.87;98820.55;1754165;81;20900;-69
2021/09/02 00:48:58;;;;;;;10.20;3.33;;;;;;;12.96;99.73;98816.53;1760321;81;20944;-69
2021/09/02 00:51:24;;;;;;;6.05;3.42;;;;;;;12.93;100.00;98819.41;1756682;80;20982;-69
2021/09/02 00:53:55;;;;;;;9.15;3.83;;;;;;;12.90;100.00;98817.36;1746784;80;21124;-69
2021/09/02 00:56:28;;;;;;;8.58;3.65;;;;;;;12.88;100.00;98828.72;1713613;82;21442;-83
2021/09/02 00:58:55;;;;;;;5.05;3.37;;;;;;;12.85;100.00;98828.04;1702801;83;21520;-68
2021/09/02 01:01:22;;;;;;;5.47;3.27;;;;;;;12.81;100.00;98831.26;1694790;83;20952;-68
2021/09/02 01:03:48;;;;;;;5.95;3.20;;;;;;;12.81;100.00;98835.97;1705701;83;20910;-68
2021/09/02 01:06:16;;;;;;;6.87;3.85;;;;;;;12.82;100.00;98831.48;1711672;83;21121;-69
2021/09/02 01:08:43;;;;;;;6.97;3.70;;;;;;;12.84;100.00;98836.65;1712185;83;21440;-69
2021/09/02 01:11:10;;;;;;;7.30;4.17;;;;;;;12.84;100.00;98827.01;1705241;83;21617;-69
2021/09/02 01:13:36;;;;;;;5.58;4.00;;;;;;;12.85;100.00;98821.73;1706584;83;21587;-70
2021/09/02 01:16:03;;;;;;;5.85;4.60;;;;;;;12.85;100.00;98824.48;1701504;83;21409;-69
2021/09/02 01:18:30;;;;;;;13.00;4.95;;;;;;;12.84;100.00;98824.25;1700249;83;21127;-71
2021/09/02 01:20:56;;;;;;;9.30;4.15;;;;;;;12.84;100.00;98822.88;1699445;83;21668;-70
2021/09/02 01:23:23;;;;;;;7.67;4.42;;;;;;;12.88;100.00;98825.97;1697127;83;20957;-69
2021/09/02 01:25:49;;;;;;;8.45;4.10;;;;;;;12.89;100.00;98830.90;1695002;83;21035;-69
2021/09/02 01:28:18;;;;;;;5.92;3.80;;;;;;;12.92;100.00;98831.58;1709252;81;21044;-69
2021/09/02 01:30:44;;;;;;;9.48;3.98;;;;;;;12.95;100.00;98830.88;1728024;82;21107;-68
2021/09/02 01:33:15;;;;;;;8.45;4.20;;;;;;;12.99;100.00;98832.37;1705683;83;20866;-69
2021/09/02 01:35:42;;;;;;;10.10;4.37;;;;;;;13.03;100.00;98827.77;1706079;83;21009;-70
2021/09/02 01:38:09;;;;;;;7.00;4.45;;;;;;;13.07;100.00;98832.23;1714510;83;20960;-70
2021/09/02 01:40:42;;;;;;;6.47;4.28;;;;;;;13.12;100.00;98824.30;1726890;81;21152;-69
2021/09/02 01:43:13;;;;;;;6.17;4.35;;;;;;;13.17;100.00;98822.13;1745349;81;21185;-66
2021/09/02 01:45:40;;;;;;;6.78;4.45;;;;;;;13.21;100.00;98824.98;1757593;80;20929;-70
2021/09/02 01:48:07;;;;;;;12.60;4.70;;;;;;;13.24;100.00;98818.77;1749466;81;20955;-68
2021/09/02 01:50:40;;;;;;;10.82;4.70;;;;;;;13.27;100.00;98818.06;1748224;81;21042;-70
2021/09/02 01:53:10;;;;;;;6.60;4.15;;;;;;;13.30;100.00;98820.67;1757103;81;21393;-71
2021/09/02 01:55:37;;;;;;;7.92;5.20;;;;;;;13.32;100.00;98821.92;1758210;80;21044;-70
2021/09/02 01:58:05;;;;;;;8.13;4.60;;;;;;;13.33;100.00;98820.77;1749224;81;20917;-72
2021/09/02 02:00:33;;;;;;;11.15;4.85;;;;;;;13.36;100.00;98815.93;1714960;81;20998;-71
2021/09/02 02:02:59;;;;;;;6.60;4.37;;;;;;;13.36;100.00;98822.02;1727200;82;21805;-69
2021/09/02 02:05:26;;;;;;;13.25;5.08;;;;;;;13.36;100.00;98816.51;1734059;82;21018;-68
2021/09/02 02:07:53;;;;;;;8.98;5.12;;;;;;;13.37;100.00;98814.78;1724407;81;21985;-69
2021/09/02 02:10:22;;;;;;;10.13;4.55;;;;;;;13.38;100.00;98813.63;1722723;81;21029;-70
2021/09/02 02:12:49;;;;;;;15.50;5.35;;;;;;;13.39;100.00;98820.74;1726667;81;21034;-69
2021/09/02 02:15:16;;;;;;;11.05;5.20;;;;;;;13.40;100.00;98821.55;1727807;81;21032;-70
2021/09/02 02:17:43;;;;;;;8.93;4.65;;;;;;;13.38;100.00;98821.09;1742082;81;20884;-70
2021/09/02 02:20:12;;;;;;;8.73;5.08;;;;;;;13.37;100.00;98816.73;1725102;82;21017;-68
2021/09/02 02:22:42;;;;;;;9.53;4.87;;;;;;;13.35;100.00;98822.59;1703832;81;20988;-66
2021/09/02 02:25:12;;;;;;;9.55;5.30;;;;;;;13.35;100.00;98822.59;1719112;83;20987;-67
2021/09/02 02:27:39;;;;;;;8.90;5.15;;;;;;;13.34;100.00;98823.75;1694396;83;21537;-67
2021/09/02 02:30:09;;;;;;;8.80;4.92;;;;;;;13.35;100.00;98817.66;1699108;83;21014;-72
2021/09/02 02:32:36;;;;;;;9.55;5.55;;;;;;;13.37;100.00;98825.80;1710443;83;22671;-71
2021/09/02 02:35:05;;;;;;;9.05;5.72;;;;;;;13.38;100.00;98812.82;1717759;83;21059;-71
2021/09/02 02:37:31;;;;;;;11.57;4.87;;;;;;;13.38;100.00;98815.58;1709664;83;20939;-71
2021/09/02 02:39:58;;;;;;;9.65;5.17;;;;;;;13.39;100.00;98816.61;1702250;83;22004;-72
2021/09/02 02:42:26;;;;;;;10.15;4.80;;;;;;;13.40;100.00;98813.27;1700093;83;20979;-71
2021/09/02 02:44:52;;;;;;;7.95;5.03;;;;;;;13.41;100.00;98821.77;1693881;83;21066;-71
2021/09/02 02:47:24;;;;;;;10.32;5.35;;;;;;;13.41;100.00;98819.81;1702573;83;20940;-69
2021/09/02 02:49:56;;;;;;;9.28;4.72;;;;;;;13.41;100.00;98824.53;1678514;83;21447;-66
2021/09/02 02:52:30;;;;;;;9.33;5.42;;;;;;;13.42;100.00;98832.45;1725188;82;21517;-66
2021/09/02 02:54:59;;;;;;;11.38;5.33;;;;;;;13.44;100.00;98827.95;1722030;81;21539;-66
2021/09/02 02:57:31;;;;;;;11.75;5.30;;;;;;;13.45;100.00;98829.56;1707401;82;21105;-66
2021/09/02 03:00:01;;;;;;;15.30;5.00;;;;;;;13.47;100.00;98830.02;1730161;81;20986;-65
2021/09/02 03:02:33;;;;;;;13.35;5.12;;;;;;;13.47;100.00;98822.55;1711190;81;21457;-72
2021/09/02 03:05:03;;;;;;;7.95;5.15;;;;;;;13.47;100.00;98833.58;1731057;82;20934;-72
2021/09/02 03:07:36;;;;;;;6.92;4.85;;;;;;;13.48;100.00;98830.23;1690877;82;21549;-69
2021/09/02 03:10:04;;;;;;;;;;;;;;;13.49;100.00;98826.33;1708555;83;21209;-68
2021/09/02 03:12:37;;;;;;;7.83;4.70;;;;;;;13.50;100.00;98822.42;1699974;82;20480;-70
2021/09/02 03:15:10;;;;;;;12.40;5.12;;;;;;;13.50;100.00;98832.06;1706413;82;21414;-70
2021/09/02 03:17:42;;;;;;;16.85;5.97;;;;;;;13.50;100.00;98832.06;1707417;83;20959;-69
2021/09/02 03:20:23;;;;;;;7.72;4.97;;;;;;;13.52;100.00;98827.00;1710747;83;20937;-72
2021/09/02 03:22:51;;;;;;;10.75;5.65;;;;;;;13.52;100.00;98831.14;1691940;83;22295;-72
2021/09/02 03:25:21;;;;;;;10.03;5.10;;;;;;;13.53;100.00;98836.30;1707215;83;21498;-70
2021/09/02 03:27:59;;;;;;;8.60;5.00;;;;;;;13.54;100.00;98816.42;1689307;83;20937;-69
2021/09/02 03:30:28;;;;;;;10.10;4.60;;;;;;;13.50;100.00;98828.73;1700979;83;21672;-70
2021/09/02 03:33:03;;;;;;;10.48;5.08;;;;;;;13.50;100.00;98826.55;1695116;83;21497;-70
2021/09/02 03:35:33;;;;;;;8.20;4.80;;;;;;;13.52;100.00;98833.89;1657510;84;20975;-71
2021/09/02 03:38:05;;;;;;;8.50;4.78;;;;;;;13.53;100.00;98834.13;1697698;82;20991;-70
2021/09/02 03:40:36;;;;;;;7.12;4.03;;;;;;;13.53;100.00;98841.02;1695788;83;20981;-72
2021/09/02 03:43:06;;;;;;;10.35;4.72;;;;;;;13.55;100.00;98842.84;1690252;83;21064;-69
2021/09/02 03:45:34;;;;;;;7.03;4.50;;;;;;;13.55;100.00;98851.11;1701578;83;21597;-71
2021/09/02 03:48:04;;;;;;;8.78;4.40;;;;;;;13.55;100.00;98851.92;1744554;80;21606;-73
2021/09/02 03:50:36;;;;;;;12.70;5.65;;;;;;;13.57;100.00;98846.62;1679268;82;20894;-80
2021/09/02 03:53:05;;;;;;;9.00;4.58;;;;;;;13.61;100.00;98855.80;1709582;81;21012;-70
2021/09/02 03:55:35;;;;;;;15.03;5.17;;;;;;;13.70;100.00;98850.35;1730430;81;21035;-70
2021/09/02 03:58:09;;;;;;;9.48;4.78;;;;;;;13.82;100.00;98847.53;1697930;82;21054;-69
2021/09/02 04:00:43;;;;;;;11.03;4.42;;;;;;;13.90;100.00;98849.86;1714470;81;20941;-77
2021/09/02 04:03:13;;;;;;;10.95;5.00;;;;;;;13.97;100.00;98850.63;1722636;82;20945;-70
2021/09/02 04:05:44;;;;;;;6.85;4.42;;;;;;;14.00;100.00;98851.30;1735031;82;20937;-68
2021/09/02 04:08:16;;;;;;;8.53;4.33;;;;;;;14.10;100.00;98857.67;1718757;81;20997;-69
2021/09/02 04:10:44;;;;;;;8.90;4.20;;;;;;;14.18;99.67;98859.45;1741259;81;20857;-69
2021/09/02 04:13:18;;;;;;;10.32;4.20;;;;;;;14.22;99.27;98863.11;1694307;82;21477;-68
2021/09/02 04:15:51;;;;;;;8.25;4.10;;;;;;;14.24;98.56;98867.70;1691321;82;21508;-68
2021/09/02 04:18:24;;;;;;;6.03;3.47;;;;;;;14.23;97.43;98868.85;1700583;82;20951;-70
2021/09/02 04:20:51;;;;;;;8.88;4.17;;;;;;;14.27;97.43;98873.88;1728524;82;21073;-68
2021/09/02 04:23:22;;;;;;;15.78;4.55;;;;;;;14.25;96.25;98880.34;1736237;82;21523;-72
2021/09/02 04:25:54;;;;;;;8.95;3.52;;;;;;;14.18;95.27;98880.96;1729873;81;21213;-69
2021/09/02 04:28:22;;;;;;;14.68;4.03;;;;;;;14.18;95.70;98882.92;1696787;82;20985;-72
2021/09/02 04:30:57;;;;;;;11.18;3.80;;;;;;;14.14;94.94;98884.78;1731691;82;20906;-69
2021/09/02 04:33:29;;;;;;;6.78;3.83;;;;;;;14.14;94.38;98874.55;1742018;81;21553;-71
2021/09/02 04:35:59;;;;;;;5.70;3.42;;;;;;;14.13;93.96;98881.80;1726549;81;21056;-71
2021/09/02 04:38:28;;;;;;;12.43;3.95;;;;;;;14.11;93.75;98884.91;1734751;82;21802;-71
2021/09/02 04:41:02;;;;;;;6.20;3.02;;;;;;;14.04;92.08;98877.03;1722307;81;21710;-70
2021/09/02 04:43:35;;;;;;;9.38;3.70;;;;;;;13.98;92.52;98883.39;1708704;82;21029;-70
2021/09/02 04:46:08;;;;;;;8.98;4.00;;;;;;;13.96;92.39;98881.56;1732792;82;20999;-70
2021/09/02 04:48:36;;;;;;;7.42;2.98;;;;;;;13.93;91.92;98887.78;1696540;82;22078;-70
2021/09/02 04:51:05;;;;;;;7.83;3.70;;;;;;;13.87;91.60;98896.09;1709545;81;21145;-70
2021/09/02 04:53:36;;;;;;;10.40;3.58;;;;;;;13.81;91.27;98892.02;1718106;81;20941;-70
2021/09/02 04:56:07;;;;;;;8.35;3.50;;;;;;;13.77;91.26;98893.30;1684400;83;20954;-70
2021/09/02 04:58:39;;;;;;;9.63;4.17;;;;;;;13.73;91.63;98892.40;1691475;82;21018;-70
2021/09/02 05:01:10;;;;;;;;;;;;;;;13.73;92.47;98892.40;1713658;82;21166;-70
2021/09/02 05:03:39;;;;;;;8.30;4.05;;;;;;;13.75;92.20;98890.09;1684675;82;20098;-70
2021/09/02 05:06:12;;;;;;;10.05;4.05;;;;;;;13.72;92.25;98894.94;1696659;81;21560;-70
2021/09/02 05:08:43;;;;;;;6.25;3.95;;;;;;;13.72;92.07;98897.69;1706083;82;21021;-70
2021/09/02 05:11:20;;;;;;;7.53;3.52;;;;;;;13.77;91.83;98897.44;1701774;81;20902;-70
2021/09/02 05:13:49;;;;;;;10.43;3.50;;;;;;;13.77;91.70;98889.73;1703496;81;21570;-70
2021/09/02 05:16:19;;;;;;;9.40;3.58;;;;;;;13.78;90.85;98892.14;1718954;82;20981;-70
2021/09/02 05:18:51;;;;;;;9.58;4.40;;;;;;;13.83;91.13;98896.61;1703884;82;20985;-69
2021/09/02 05:21:22;;;;;;;11.88;3.90;;;;;;;13.94;91.55;98897.67;1698631;82;28501;-70
2021/09/02 05:23:50;;;;;;;13.32;4.78;;;;;;;14.03;90.49;98896.92;1730566;81;20918;-71
2021/09/02 05:26:27;;;;;;;7.53;3.80;;;;;;;14.10;89.73;98899.07;1740982;81;20941;-71
2021/09/02 05:28:54;;;;;;;10.32;4.42;;;;;;;14.08;88.80;98894.48;1735315;81;21794;-70
2021/09/02 05:31:27;;;;;;;6.92;3.92;;;;;;;14.03;89.04;98896.92;1734188;81;21072;-71
2021/09/02 05:34:00;;;;;;;8.30;3.83;;;;;;;13.97;88.11;98900.30;1743908;81;20989;-71
2021/09/02 05:36:35;;;;;;;7.58;3.95;;;;;;;13.91;88.29;98900.33;1716298;81;21424;-71
2021/09/02 05:39:07;;;;;;;5.90;3.83;;;;;;;13.85;87.88;98899.81;1688666;82;21651;-70
2021/09/02 05:41:43;;;;;;;8.00;3.92;;;;;;;13.78;88.34;98900.42;1703685;82;21421;-70
2021/09/02 05:44:13;;;;;;;8.18;4.62;;;;;;;13.79;88.58;98902.60;1737885;81;20898;-71
2021/09/02 05:46:44;;;;;;;7.30;4.00;;;;;;;13.81;88.65;98909.38;1737907;81;20876;-69
2021/09/02 05:49:14;;;;;;;9.03;4.00;;;;;;;13.86;88.11;98915.98;1752688;81;20974;-70
2021/09/02 05:51:43;;;;;;;8.08;3.70;;;;;;;13.89;87.08;98909.77;1704374;81;21148;-70
2021/09/02 05:54:18;;;;;;;6.55;4.20;;;;;;;13.94;87.59;98917.56;1757718;81;21626;-71
2021/09/02 05:56:47;;;;;;;11.18;3.98;;;;;;;13.99;86.54;98914.55;1756625;81;20874;-70
2021/09/02 05:59:23;;;;;;;9.75;4.45;;;;;;;14.03;85.60;98919.58;1758988;81;20932;-69
2021/09/02 06:01:51;;;;;;;9.85;3.77;;;;;;;14.02;84.08;98916.59;1761927;81;21488;-70
2021/09/02 06:04:22;;;;;;;11.53;3.95;;;;;;;13.99;84.58;98911.78;1752632;81;20873;-70
2021/09/02 06:06:56;;;;;;;9.25;4.00;;;;;;;13.94;83.16;98914.80;1755405;81;21949;-70
2021/09/02 06:09:25;;;;;;;12.95;3.60;;;;;;;13.91;83.77;98919.64;1750257;81;21070;-71
2021/09/02 06:11:55;;;;;;;14.93;4.12;;;;;;;13.88;82.57;98913.67;1718244;82;20979;-72
2021/09/02 06:14:23;;;;;;;8.38;3.77;;;;;;;13.80;82.46;98916.05;1744622;81;21011;-72
2021/09/02 06:16:54;;;;;;;7.65;3.85;;;;;;;13.75;82.99;98925.15;1748093;82;21035;-72
2021/09/02 06:19:26;;;;;;;7.95;4.08;;;;;;;13.74;83.29;98935.38;1738926;81;22265;-73
2021/09/02 06:21:54;;;;;;;7.20;3.50;;;;;;;13.76;82.61;98933.65;1714442;82;20920;-73
2021/09/02 06:24:26;;;;;;;11.45;3.77;;;;;;;13.78;82.07;98933.52;1718142;82;20867;-70
2021/09/02 06:26:56;;;;;;;13.78;4.10;;;;;;;13.77;81.81;98937.44;1708825;81;20906;-70
2021/09/02 06:29:27;;;;;;;7.35;3.67;;;;;;;13.76;82.09;98933.65;1716375;82;20956;-78
2021/09/02 06:31:56;;;;;;;7.72;4.35;;;;;;;13.74;79.95;98942.85;1736783;81;21019;-75
2021/09/02 06:34:34;;;;;;;8.78;3.47;;;;;;;13.74;81.50;98938.72;1723524;82;21473;-78
2021/09/02 06:37:07;;;;;;;7.67;4.30;;;;;;;13.82;80.85;98946.84;1701304;82;21510;-69
2021/09/02 06:39:44;;;;;;;12.15;4.65;;;;;;;13.86;80.80;98935.30;1723729;82;20998;-72
2021/09/02 06:42:06;;;;;;;8.50;4.53;;;;;;;13.96;80.87;98942.84;1709254;82;20847;-75
2021/09/02 06:44:39;;;;;;;10.75;3.95;;;;;;;14.02;78.84;98941.44;1722992;82;21175;-68
2021/09/02 06:47:13;;;;;;;10.25;3.65;;;;;;;14.09;79.06;98943.01;1715839;82;21504;-77
2021/09/02 06:49:40;;;;;;;8.68;4.05;;;;;;;14.26;77.65;98937.16;1748646;81;20937;-68
2021/09/02 06:52:08;;;;;;;8.55;3.70;;;;;;;14.39;76.76;98940.06;1739954;81;20980;-69
2021/09/02 06:54:36;;;;;;;6.75;3.37;;;;;;;14.60;76.63;98939.00;1728260;81;21008;-69
2021/09/02 06:57:03;;;;;;;8.38;3.52;;;;;;;14.77;74.24;98932.53;1737590;81;22260;-68
2021/09/02 06:59:30;;;;;;;12.63;3.90;;;;;;;14.85;73.93;98937.07;1735547;82;20910;-68
2021/09/02 07:01:56;;;;;;;11.75;4.42;;;;;;;14.96;73.30;98937.32;1731931;81;20973;-69
2021/09/02 07:04:23;;;;;;;10.82;4.08;;;;;;;15.06;73.52;98947.80;1725854;81;21521;-68
2021/09/02 07:06:50;;;;;;;10.48;3.65;;;;;;;15.15;70.90;98945.64;1719630;82;20981;-68
2021/09/02 07:09:17;;;;;;;8.60;3.08;;;;;;;15.25;71.19;98960.87;1724522;81;21185;-72
2021/09/02 07:11:45;;;;;;;8.93;3.10;;;;;;;15.32;67.22;98954.11;1734856;82;20973;-68
2021/09/02 07:14:12;;;;;;;9.65;3.08;;;;;;;15.23;65.72;98972.06;1732782;82;20915;-68
2021/09/02 07:16:40;;;;;;;6.60;2.50;;;;;;;15.19;62.14;98958.16;1686470;82;21023;-70
2021/09/02 07:19:07;;;;;;;8.70;2.35;;;;;;;15.24;61.22;98965.37;1706503;82;21016;-68
2021/09/02 07:21:33;;;;;;;5.45;2.40;;;;;;;15.28;58.87;98965.67;1706085;82;21151;-79
2021/09/02 07:23:59;;;;;;;8.23;2.60;;;;;;;15.34;61.09;98964.81;1722992;82;20903;-80
2021/09/02 07:26:26;;;;;;;11.83;2.45;;;;;;;15.45;63.02;98960.32;1739276;82;21412;-75
2021/09/02 07:28:52;;;;;;;6.35;2.50;;;;;;;15.60;60.37;98951.78;1729549;81;21057;-73
2021/09/02 07:31:19;;;;;;;9.35;2.60;;;;;;;15.71;60.31;98972.94;1699677;81;21091;-80
2021/09/02 07:33:45;;;;;;;5.62;2.67;;;;;;;16.01;59.44;98969.59;1733347;82;21030;-71
2021/09/02 07:36:11;;;;;;;5.78;2.33;;;;;;;16.31;56.08;98959.47;1713566;81;20942;-70
2021/09/02 07:38:38;;;;;;;11.50;2.67;;;;;;;16.38;54.72;98971.26;1733099;81;21057;-71
2021/09/02 07:41:05;;;;;;;4.85;2.20;;;;;;;16.30;54.51;98964.78;1732017;82;21009;-72
2021/09/02 07:43:31;;;;;;;7.03;2.90;;;;;;;16.19;55.14;98963.20;1732679;81;21045;-71
2021/09/02 07:45:58;;;;;;;8.70;2.70;;;;;;;16.30;53.33;98963.41;1742942;82;21489;-72
2021/09/02 07:48:24;;;;;;;5.92;2.50;;;;;;;16.62;55.15;98963.17;1715892;82;20918;-72
2021/09/02 07:50:51;;;;;;;8.65;2.25;;;;;;;16.82;54.45;98961.35;1710923;81;21005;-72
2021/09/02 07:53:18;;;;;;;5.17;2.90;;;;;;;16.85;53.03;98959.80;1709868;82;20947;-72
2021/09/02 07:55:45;;;;;;;11.75;2.83;;;;;;;16.71;53.49;98967.33;1730765;81;20921;-71
2021/09/02 07:58:12;;;;;;;6.72;2.15;;;;;;;16.57;54.03;98964.28;1715743;81;21187;-72
2021/09/02 08:00:39;;;;;;;7.22;2.60;;;;;;;16.59;52.85;98969.45;1723104;82;20977;-71
2021/09/02 08:03:05;;;;;;;5.87;2.35;;;;;;;16.81;54.37;98968.65;1713294;81;21157;-72
2021/09/02 08:05:33;;;;;;;5.00;2.58;;;;;;;17.24;53.29;98964.58;1712964;82;20903;-71
2021/09/02 08:08:01;;;;;;;6.80;2.40;;;;;;;17.69;51.11;98962.23;1728067;82;20926;-72
2021/09/02 08:10:27;;;;;;;7.85;2.77;;;;;;;18.08;51.04;98959.90;1742560;82;21521;-73
2021/09/02 08:12:55;;;;;;;7.70;2.40;;;;;;;18.35;50.15;98958.40;1742686;81;20835;-73
2021/09/02 08:15:22;;;;;;;9.28;2.83;;;;;;;18.28;48.10;98953.57;1725035;81;20931;-71
2021/09/02 08:17:49;;;;;;;11.10;3.27;;;;;;;18.32;49.95;98959.16;1710558;82;20950;-72
2021/09/02 08:20:16;;;;;;;10.20;1.62;;;;;;;18.73;47.75;98953.00;1724091;81;20970;-71
2021/09/02 08:22:42;;;;;;;9.60;2.08;;;;;;;19.04;45.50;98965.57;1729234;81;20995;-72
2021/09/02 08:25:10;;;;;;;5.62;1.82;;;;;;;19.16;44.69;98947.15;1708013;81;21652;-72
2021/09/02 08:27:36;;;;;;;13.58;2.22;;;;;;;19.09;45.51;98958.23;1715201;82;21524;-71
2021/09/02 08:30:05;;;;;;;6.42;2.50;;;;;;;18.88;44.02;98960.28;1722769;81;21631;-71
2021/09/02 08:32:31;;;;;;;5.42;2.00;;;;;;;18.38;43.98;98972.92;1711682;81;21092;-72
2021/09/02 08:34:58;;;;;;;4.47;2.22;;;;;;;17.84;46.12;98974.91;1730321;82;21143;-71
2021/09/02 08:37:25;;;;;;;6.33;1.47;;;;;;;17.80;48.21;98973.47;1705925;82;20878;-71
2021/09/02 08:39:52;;;;;;;7.80;2.15;;;;;;;17.89;48.32;98982.31;1707022;82;21029;-71
2021/09/02 08:42:18;;;;;;;4.53;1.70;;;;;;;18.00;47.55;98972.10;1718323;82;21002;-71
2021/09/02 08:44:45;;;;;;;6.28;2.42;;;;;;;17.86;47.36;98975.33;1735479;82;20886;-71
2021/09/02 08:47:12;;;;;;;10.10;2.67;;;;;;;17.89;48.36;98981.52;1725497;81;21075;-72
2021/09/02 08:49:39;;;;;;;7.20;2.17;;;;;;;18.27;47.55;98969.23;1723807;82;20969;-70
2021/09/02 08:52:05;;;;;;;6.62;1.92;;;;;;;18.85;46.33;98965.22;1727438;81;20958;-71
2021/09/02 08:54:34;;;;;;;9.90;2.37;;;;;;;19.21;46.23;98962.68;1712066;81;20874;-70
2021/09/02 08:57:02;;;;;;;6.60;2.27;;;;;;;19.50;45.46;98964.45;1716070;82;20954;-70
2021/09/02 08:59:29;;;;;;;7.30;2.58;;;;;;;19.62;43.81;98955.80;1720402;82;22082;-71
2021/09/02 09:01:55;;;;;;;6.47;1.92;;;;;;;19.69;44.72;98968.34;1711670;81;20882;-70
2021/09/02 09:04:23;;;;;;;12.25;2.55;;;;;;;19.70;43.14;98965.76;1716147;81;20958;-70
2021/09/02 09:06:52;;;;;;;9.93;2.37;;;;;;;19.76;42.13;98972.55;1709701;82;20968;-71
2021/09/02 09:09:19;;;;;;;7.65;2.02;;;;;;;19.79;42.21;98966.20;1728020;81;20907;-69
2021/09/02 09:11:49;;;;;;;7.50;1.90;;;;;;;19.84;42.18;98971.19;1717193;82;21156;-72
2021/09/02 09:14:28;;;;;;;12.55;2.15;;;;;;;19.72;42.83;98973.13;1734517;82;20970;-71
2021/09/02 09:16:58;;;;;;;4.30;1.67;;;;;;;19.66;42.13;98970.52;1726291;81;21568;-70
2021/09/02 09:19:53;;;;;;;6.12;2.17;;;;;;;19.40;41.70;98977.13;1718736;82;21453;-70
2021/09/02 09:22:13;;;;;;;4.97;1.90;;;;;;;18.99;42.55;98963.95;1729650;81;20930;-70
2021/09/02 09:24:50;;;;;;;6.37;1.67;;;;;;;18.38;43.51;98976.50;1716841;82;21125;-70
2021/09/02 09:27:22;;;;;;;4.12;1.75;;;;;;;18.01;45.51;98981.23;1734554;81;20895;-72
2021/09/02 09:30:20;;;;;;;4.55;1.72;;;;;;;17.87;45.24;98980.50;1728601;81;21492;-72
2021/09/02 09:32:56;;;;;;;7.12;1.80;;;;;;;18.07;45.36;98979.13;1707310;82;21034;-71
2021/09/02 09:35:37;;;;;;;4.45;1.87;;;;;;;18.21;44.70;98983.25;1728182;81;21073;-75
2021/09/02 09:38:12;;;;;;;4.03;1.47;;;;;;;18.19;43.15;98983.62;1725413;82;21194;-71
2021/09/02 09:40:41;;;;;;;5.83;1.80;;;;;;;18.12;43.63;98982.16;1706552;82;21024;-76
2021/09/02 09:43:22;;;;;;;6.87;2.05;;;;;;;18.10;44.12;98983.92;1699811;82;21057;-76
2021/09/02 09:45:56;;;;;;;12.45;2.08;;;;;;;17.91;43.37;98994.43;1699156;82;21035;-77
2021/09/02 09:48:34;;;;;;;4.42;1.65;;;;;;;17.50;43.81;98992.27;1684225;83;21004;-74
2021/09/02 09:51:21;;;;;;;5.72;2.17;;;;;;;17.09;43.86;99002.38;1707699;83;22001;-71
2021/09/02 09:53:49;;;;;;;5.42;1.85;;;;;;;16.75;45.72;99007.58;1699239;83;20941;-71
2021/09/02 09:56:19;;;;;;;6.50;2.12;;;;;;;16.57;46.49;99010.59;1711921;82;21166;-71
2021/09/02 09:58:48;;;;;;;4.47;1.72;;;;;;;16.44;46.02;99010.76;1719164;82;21030;-71
2021/09/02 10:01:14;;;;;;;9.20;2.37;;;;;;;16.46;47.54;99020.89;1721969;81;21001;-72
2021/09/02 10:03:43;;;;;;;5.83;1.95;;;;;;;16.60;47.06;99009.85;1746225;81;21922;-71
2021/09/02 10:06:11;;;;;;;5.72;2.08;;;;;;;16.69;47.29;99011.24;1744957;81;21519;-71
2021/09/02 10:08:40;;;;;;;5.55;2.47;;;;;;;16.78;48.23;99008.20;1746473;81;21018;-70
2021/09/02 10:11:09;;;;;;;10.10;2.10;;;;;;;16.87;46.58;99008.75;1744367;81;21656;-71
2021/09/02 10:13:36;;;;;;;4.12;2.02;;;;;;;16.93;46.16;99021.12;1745621;81;21070;-71
2021/09/02 10:16:04;;;;;;;5.55;2.00;;;;;;;16.88;45.32;99026.98;1743984;81;21054;-71
2021/09/02 10:18:33;;;;;;;4.62;1.80;;;;;;;16.74;46.75;99025.37;1744685;81;21553;-71
2021/09/02 10:21:06;;;;;;;6.28;1.77;;;;;;;16.63;46.93;99021.00;1737069;81;21066;-71
2021/09/02 10:23:34;;;;;;;7.45;1.90;;;;;;;16.47;46.89;99025.84;1704929;81;21023;-72
2021/09/02 10:26:01;;;;;;;3.22;1.75;;;;;;;16.25;47.29;99023.25;1653729;84;21032;-71
2021/09/02 10:28:35;;;;;;;4.12;1.77;;;;;;;16.11;47.31;99022.41;1647030;83;21153;-71
2021/09/02 10:31:09;;;;;;;4.12;1.90;;;;;;;16.03;48.58;99034.50;1669407;84;21103;-72
2021/09/02 10:33:44;;;;;;;4.85;1.80;;;;;;;16.09;49.20;99030.86;1708148;82;21051;-72
2021/09/02 10:36:19;;;;;;;9.63;2.52;;;;;;;16.11;47.84;99014.10;1725652;82;20988;-70
2021/09/02 10:38:52;;;;;;;5.90;2.35;;;;;;;16.01;47.76;99021.61;1737887;82;20897;-70
2021/09/02 10:41:44;;;;;;;8.38;2.20;;;;;;;16.03;49.75;99024.02;1735492;81;21142;-70
2021/09/02 10:44:15;;;;;;;7.73;2.33;;;;;;;16.42;49.47;99031.10;1717431;82;20980;-73
2021/09/02 10:46:52;;;;;;;6.30;2.12;;;;;;;16.79;47.02;99027.81;1687209;83;21011;-71
2021/09/02 10:49:37;;;;;;;10.15;2.47;;;;;;;17.21;45.89;99023.57;1729276;81;21043;-71
2021/09/02 10:52:05;;;;;;;14.20;2.55;;;;;;;17.67;45.88;99029.81;1702809;81;21423;-71
2021/09/02 10:54:36;;;;;;;15.70;2.90;;;;;;;18.13;44.23;99027.61;1714905;82;20955;-72
2021/09/02 10:57:13;;;;;;;5.87;2.15;;;;;;;18.51;45.59;99024.24;1702318;83;20994;-70
2021/09/02 10:59:47;;;;;;;14.30;2.65;;;;;;;19.04;44.89;99030.34;1718666;82;20994;-70
2021/09/02 11:02:28;;;;;;;6.03;1.67;;;;;;;19.57;43.29;99018.81;1727834;81;20971;-71
2021/09/02 11:05:01;;;;;;;6.25;2.00;;;;;;;19.90;40.86;99029.52;1725331;82;21577;-72
2021/09/02 11:07:43;;;;;;;5.85;1.95;;;;;;;20.05;42.09;99014.46;1727253;82;20977;-71
2021/09/02 11:10:21;;;;;;;3.52;1.50;;;;;;;20.46;42.69;99018.39;1735611;81;21004;-73
2021/09/02 11:13:01;;;;;;;5.17;2.00;;;;;;;20.92;38.82;99015.05;1724276;82;21015;-72
2021/09/02 11:15:29;;;;;;;4.12;1.70;;;;;;;20.69;39.13;99019.64;1730689;82;20921;-72
2021/09/02 11:17:58;;;;;;;4.15;1.77;;;;;;;20.15;38.00;99014.30;1747362;82;20885;-73
2021/09/02 11:20:29;;;;;;;3.92;2.08;;;;;;;19.60;38.51;99011.08;1732008;81;21768;-72
2021/09/02 11:23:18;;;;;;;3.33;1.57;;;;;;;19.12;39.94;99036.15;1733508;81;20899;-72
2021/09/02 11:25:52;;;;;;;8.60;1.87;;;;;;;18.69;40.69;99045.31;1710814;81;21026;-72
2021/09/02 11:28:21;;;;;;;8.38;1.70;;;;;;;18.27;41.28;99044.24;1708600;83;21187;-71
2021/09/02 11:30:50;;;;;;;7.97;2.22;;;;;;;17.87;42.82;99049.12;1701918;83;21014;-73
2021/09/02 11:33:16;;;;;;;5.75;2.08;;;;;;;17.54;42.83;99050.60;1679269;83;21505;-72
2021/09/02 11:35:56;;;;;;;5.85;1.95;;;;;;;17.27;42.43;99049.02;1689940;83;21002;-72
2021/09/02 11:38:23;;;;;;;3.95;1.72;;;;;;;17.14;42.81;99049.22;1690478;83;21574;-72
2021/09/02 11:40:49;;;;;;;5.80;2.15;;;;;;;17.32;44.72;99057.02;1699899;83;21565;-72
2021/09/02 11:43:17;;;;;;;4.53;2.05;;;;;;;17.75;44.43;99048.17;1693807;83;21493;-72